Time;durP1;ratioP1;P1;durP2;ratioP2;P2;SDS_P1;SDS_P2;PMS_P1;PMS_P2;Temp;Humidity;BMP_temperature;BMP_pressure;BME280_temperature;BME280_humidity;BME280_pressure;Samples;Min_cycle;Max_cycle;Signal;HPM_P1;HPM_P2
2023/09/16 00:03:15;;;;;;;5.73;3.63;;;;;;;15.17;77.12;101358.80;5079514;56;1138814;-74
2023/09/16 00:08:20;;;;;;;19.77;3.87;;;;;;;15.10;77.50;101354.48;5096870;56;1138775;-74
2023/09/16 00:13:26;;;;;;;9.75;4.53;;;;;;;15.06;77.84;101351.71;4995248;57;1141156;-74
2023/09/16 00:18:32;;;;;;;8.25;4.00;;;;;;;15.03;78.00;101354.63;5079153;56;1138758;-74
2023/09/16 00:23:38;;;;;;;4.53;3.62;;;;;;;14.99;78.43;101358.02;4998054;57;1139121;-74
2023/09/16 00:28:45;;;;;;;10.57;4.03;;;;;;;14.89;78.81;101350.44;5020876;56;1138795;-74
2023/09/16 00:33:51;;;;;;;5.97;3.67;;;;;;;14.82;79.71;101350.57;4926634;57;1140930;-73
2023/09/16 00:38:57;;;;;;;4.37;3.30;;;;;;;14.79;80.21;101358.84;4916702;57;1138685;-74
2023/09/16 00:44:02;;;;;;;7.57;4.27;;;;;;;14.77;79.95;101352.79;4939451;57;1138552;-75
2023/09/16 00:49:08;;;;;;;8.46;4.00;;;;;;;14.78;80.64;101350.00;4974617;58;1138734;-74
2023/09/16 00:54:14;;;;;;;13.70;4.23;;;;;;;14.77;80.48;101346.13;4997908;57;1138823;-76
2023/09/16 00:59:23;;;;;;;9.03;3.85;;;;;;;14.75;80.66;101345.41;5015268;58;1140814;-74
2023/09/16 01:04:29;;;;;;;8.15;3.70;;;;;;;14.67;80.54;101344.69;5000616;57;1138619;-75
2023/09/16 01:09:35;;;;;;;5.08;3.44;;;;;;;14.62;80.96;101352.70;4984063;56;1138631;-74
2023/09/16 01:14:40;;;;;;;7.60;3.58;;;;;;;14.56;81.03;101349.20;4914543;58;1138642;-74
2023/09/16 01:20:10;;;;;;;9.37;3.93;;;;;;;14.48;81.48;101356.48;4934725;57;1138466;-74
2023/09/16 01:25:17;;;;;;;7.08;3.55;;;;;;;14.43;81.79;101358.19;5077912;56;1138424;-75
2023/09/16 01:30:25;;;;;;;10.00;3.55;;;;;;;14.40;81.95;101359.75;4991860;57;1138784;-74
2023/09/16 01:35:35;;;;;;;7.90;4.00;;;;;;;14.38;82.65;101365.64;5015684;57;1140801;-75
2023/09/16 01:40:44;;;;;;;6.17;3.80;;;;;;;14.38;83.11;101367.45;5005326;56;1138908;-74
2023/09/16 01:45:50;;;;;;;8.30;3.57;;;;;;;14.32;83.10;101360.84;4922566;58;1138913;-74
2023/09/16 01:50:55;;;;;;;7.07;3.83;;;;;;;14.27;83.30;101355.02;4934007;58;1138771;-74
2023/09/16 01:56:01;;;;;;;4.67;3.03;;;;;;;14.23;83.99;101350.91;4996780;57;1138896;-75
2023/09/16 02:01:11;;;;;;;6.03;3.40;;;;;;;14.04;86.42;101338.72;4996579;57;1138982;-74
2023/09/16 02:06:16;;;;;;;9.08;3.67;;;;;;;14.05;86.38;101349.21;5080194;56;1138897;-74
2023/09/16 02:11:22;;;;;;;6.15;4.00;;;;;;;14.02;85.25;101343.31;5078810;56;1138915;-74
2023/09/16 02:16:28;;;;;;;6.17;4.22;;;;;;;13.96;86.09;101343.30;4995866;57;1138595;-75
2023/09/16 02:21:34;;;;;;;14.38;4.35;;;;;;;13.89;86.30;101343.92;4996206;57;1138791;-75
2023/09/16 02:26:39;;;;;;;9.67;3.73;;;;;;;13.84;86.83;101350.07;5023109;57;1140800;-74
2023/09/16 02:31:46;;;;;;;13.37;4.30;;;;;;;13.82;86.93;101346.68;5079216;56;1138843;-74
2023/09/16 02:36:52;;;;;;;10.90;4.73;;;;;;;13.82;87.25;101345.34;5007695;57;1141073;-74
2023/09/16 02:41:58;;;;;;;7.93;4.70;;;;;;;13.80;87.36;101341.95;5092438;56;1140870;-74
2023/09/16 02:47:03;;;;;;;8.77;4.60;;;;;;;13.70;87.58;101347.16;4930317;58;1138676;-75
2023/09/16 02:52:09;;;;;;;9.73;5.40;;;;;;;13.66;87.90;101344.36;5015584;57;1138767;-74
2023/09/16 02:57:14;;;;;;;12.03;7.53;;;;;;;13.62;87.87;101338.91;5029564;57;1138872;-74
2023/09/16 03:02:20;;;;;;;17.03;8.73;;;;;;;13.57;88.25;101335.30;5025451;56;1140974;-74
2023/09/16 03:07:26;;;;;;;14.77;7.87;;;;;;;13.53;88.61;101336.50;5014145;56;1140761;-74
2023/09/16 03:12:34;;;;;;;10.54;6.92;;;;;;;13.45;89.30;101337.55;5117622;56;1140947;-76
2023/09/16 03:17:40;;;;;;;14.63;6.80;;;;;;;13.37;89.93;101332.84;5129148;56;1140733;-73
2023/09/16 03:22:45;;;;;;;11.20;5.57;;;;;;;13.32;90.14;101327.50;5045092;55;1140680;-75
2023/09/16 03:27:51;;;;;;;8.13;4.40;;;;;;;13.29;90.07;101333.07;5014997;56;1140836;-74
2023/09/16 03:32:57;;;;;;;6.97;4.77;;;;;;;13.29;90.39;101333.07;5035481;56;1138657;-74
2023/09/16 03:38:04;;;;;;;10.60;4.90;;;;;;;13.22;90.58;101330.50;4923606;57;1138695;-74
2023/09/16 03:43:10;;;;;;;6.73;4.07;;;;;;;13.14;90.90;101321.73;5001272;57;1140786;-73
2023/09/16 03:48:16;;;;;;;7.87;5.20;;;;;;;13.07;90.86;101319.67;5015856;57;1138815;-75
2023/09/16 03:53:25;;;;;;;15.23;6.35;;;;;;;12.99;91.16;101306.47;4911183;58;1138910;-74
2023/09/16 03:58:31;;;;;;;10.43;5.97;;;;;;;12.92;91.45;101316.36;4917855;58;1140931;-74
2023/09/16 04:03:36;;;;;;;10.03;4.93;;;;;;;12.85;91.66;101307.98;4912716;56;1141119;-74
2023/09/16 04:08:42;;;;;;;13.63;5.23;;;;;;;12.75;91.95;101305.66;4931646;57;1140829;-74
2023/09/16 04:13:48;;;;;;;11.37;5.13;;;;;;;12.71;91.71;101308.17;4912053;57;1140779;-74
2023/09/16 04:18:54;;;;;;;7.00;4.70;;;;;;;12.72;92.08;101303.70;4975411;57;1140623;-74
2023/09/16 04:23:59;;;;;;;14.50;5.03;;;;;;;12.67;92.50;101300.09;5098836;56;1138756;-73
2023/09/16 04:29:05;;;;;;;18.20;3.53;;;;;;;12.65;92.56;101307.31;5079235;56;1140862;-74
2023/09/16 04:34:11;;;;;;;6.43;4.33;;;;;;;12.57;92.62;101304.36;4995182;57;1141232;-74
2023/09/16 04:39:17;;;;;;;18.90;4.80;;;;;;;12.44;92.85;101297.78;5102408;56;1138856;-75
2023/09/16 04:44:24;;;;;;;19.90;4.33;;;;;;;12.37;92.99;101301.86;4961182;56;1140996;-74
2023/09/16 04:49:31;;;;;;;15.83;4.43;;;;;;;12.27;93.71;101296.83;5053008;57;1140952;-75
2023/09/16 04:54:37;;;;;;;14.60;4.30;;;;;;;12.19;94.60;101305.83;5069807;56;1140833;-74
2023/09/16 04:59:45;;;;;;;12.17;4.13;;;;;;;12.15;95.64;101302.55;5098958;56;1140746;-75
2023/09/16 05:04:51;;;;;;;6.57;3.80;;;;;;;12.11;96.71;101300.20;5069675;56;1140978;-75
2023/09/16 05:09:59;;;;;;;9.77;3.63;;;;;;;12.17;97.58;101302.44;5086533;56;1138871;-73
2023/09/16 05:15:05;;;;;;;8.30;3.87;;;;;;;12.30;98.15;101309.39;5065852;56;1138682;-73
2023/09/16 05:20:11;;;;;;;8.43;4.90;;;;;;;12.36;99.07;101316.55;5053988;56;1138675;-74
2023/09/16 05:25:18;;;;;;;10.23;4.23;;;;;;;12.43;99.12;101324.42;5048649;56;1138713;-75
2023/09/16 05:30:24;;;;;;;10.23;4.78;;;;;;;12.50;99.49;101319.05;5077194;56;1140921;-74
2023/09/16 05:35:30;;;;;;;13.70;4.50;;;;;;;12.58;100.00;101316.19;5099631;55;1140821;-75
2023/09/16 05:40:37;;;;;;;16.37;4.63;;;;;;;12.64;100.00;101311.77;5053035;56;1142858;-75
2023/09/16 05:45:44;;;;;;;8.38;4.05;;;;;;;12.76;100.00;101310.02;5053379;56;1142848;-74
2023/09/16 05:51:02;;;;;;;14.67;4.33;;;;;;;12.98;100.00;101307.95;5065454;56;1141001;-74
2023/09/16 05:56:09;;;;;;;10.43;4.03;;;;;;;13.30;100.00;101320.12;4963222;57;1142718;-75
2023/09/16 06:01:16;;;;;;;6.37;4.43;;;;;;;13.57;100.00;101314.04;4963287;57;1143022;-74
2023/09/16 06:06:22;;;;;;;13.70;4.50;;;;;;;13.80;100.00;101304.73;5018536;56;1140766;-74
2023/09/16 06:11:28;;;;;;;9.97;4.20;;;;;;;14.01;98.75;101305.71;5098183;56;1143174;-74
2023/09/16 06:16:34;;;;;;;7.28;4.87;;;;;;;14.25;97.96;101305.55;5061358;56;1138810;-73
2023/09/16 06:21:40;;;;;;;11.70;4.63;;;;;;;14.47;96.41;101299.39;5040753;57;1138963;-74
2023/09/16 06:26:46;;;;;;;17.07;5.20;;;;;;;14.60;95.27;101305.39;5060183;57;1141051;-73
2023/09/16 06:31:52;;;;;;;6.30;4.00;;;;;;;14.79;95.75;101302.91;5040639;57;1140784;-73
2023/09/16 06:36:59;;;;;;;6.47;3.80;;;;;;;15.05;95.07;101298.06;5040300;57;1138866;-73
2023/09/16 06:42:05;;;;;;;9.30;4.10;;;;;;;15.27;93.78;101305.95;5033833;57;1138897;-73
2023/09/16 06:47:12;;;;;;;12.50;4.33;;;;;;;15.39;92.58;101311.57;5041095;56;1138974;-74
2023/09/16 06:52:17;;;;;;;8.07;4.30;;;;;;;15.58;92.24;101307.37;5049178;57;1140788;-74
2023/09/16 06:57:23;;;;;;;7.63;3.77;;;;;;;15.86;93.87;101303.15;5060198;57;1138600;-75
2023/09/16 07:02:29;;;;;;;12.35;4.12;;;;;;;16.20;92.31;101299.17;4978987;57;1139166;-74
2023/09/16 07:07:34;;;;;;;8.30;3.67;;;;;;;16.45;90.67;101289.34;4986986;57;1140832;-74
2023/09/16 07:12:40;;;;;;;3.70;3.17;;;;;;;16.62;89.71;101288.31;4958180;57;1138933;-75
2023/09/16 07:17:48;;;;;;;5.50;4.10;;;;;;;16.90;90.45;101287.52;4977880;57;1138829;-75
2023/09/16 07:22:56;;;;;;;6.23;3.90;;;;;;;17.17;87.90;101278.76;4978385;56;1138751;-73
2023/09/16 07:28:04;;;;;;;9.00;3.47;;;;;;;17.32;86.93;101277.33;5094180;56;1138909;-74
2023/09/16 07:33:08;;;;;;;13.03;3.70;;;;;;;17.49;86.19;101279.26;5114100;56;1138845;-74
2023/09/16 07:38:15;;;;;;;3.83;3.40;;;;;;;17.75;85.93;101271.45;5094208;56;1140515;-74
2023/09/16 07:43:22;;;;;;;6.75;3.25;;;;;;;17.89;85.14;101261.59;4994183;57;1138902;-75
2023/09/16 07:48:27;;;;;;;8.00;4.10;;;;;;;18.17;83.46;101264.29;5031699;57;1138845;-74
2023/09/16 07:53:33;;;;;;;8.33;3.35;;;;;;;18.35;81.78;101262.95;5092567;56;1138663;-74
2023/09/16 07:58:39;;;;;;;6.37;3.00;;;;;;;18.45;82.22;101261.91;5098972;56;1138710;-74
2023/09/16 08:03:44;;;;;;;5.22;3.27;;;;;;;18.69;83.02;101253.29;5044597;56;1138913;-74
2023/09/16 08:08:50;;;;;;;5.17;2.93;;;;;;;18.94;79.51;101248.47;5017918;57;1138715;-74
2023/09/16 08:13:55;;;;;;;10.68;2.92;;;;;;;19.25;81.51;101250.70;5098849;56;1138620;-74
2023/09/16 08:19:01;;;;;;;2.87;2.45;;;;;;;19.51;79.05;101257.47;5092786;56;1140794;-75
2023/09/16 08:24:07;;;;;;;5.65;3.10;;;;;;;19.72;78.74;101261.92;5127516;56;1138994;-75
2023/09/16 08:29:12;;;;;;;6.85;2.80;;;;;;;19.89;75.31;101256.97;5067218;56;1138711;-74
2023/09/16 08:34:18;;;;;;;9.60;3.47;;;;;;;19.96;74.40;101267.42;5023988;56;1138638;-75
2023/09/16 08:39:23;;;;;;;3.92;2.30;;;;;;;20.14;73.97;101263.30;5035429;57;1138973;-75
2023/09/16 08:44:34;;;;;;;5.85;2.45;;;;;;;20.27;75.90;101244.86;5065855;56;1138766;-74
2023/09/16 08:49:46;;;;;;;3.42;2.70;;;;;;;20.49;71.55;101247.94;5005934;56;1138929;-74
2023/09/16 08:54:52;;;;;;;5.70;2.70;;;;;;;20.46;72.16;101256.36;4963093;56;1138828;-75
2023/09/16 08:59:58;;;;;;;6.78;2.55;;;;;;;20.64;72.67;101253.84;5007369;57;1138689;-74
2023/09/16 09:05:06;;;;;;;4.28;2.40;;;;;;;20.83;69.84;101247.31;4999512;57;1138676;-75
2023/09/16 09:10:12;;;;;;;8.30;2.52;;;;;;;20.83;69.09;101235.20;4995870;56;1138807;-74
2023/09/16 09:15:18;;;;;;;6.22;2.56;;;;;;;20.99;71.08;101238.40;5015678;57;1138507;-75
2023/09/16 09:20:29;;;;;;;12.82;2.37;;;;;;;21.25;70.18;101235.53;5071865;56;1138929;-76
2023/09/16 09:25:36;;;;;;;15.08;2.60;;;;;;;21.36;66.31;101235.19;4990826;57;1140855;-73
2023/09/16 09:30:43;;;;;;;6.90;2.27;;;;;;;21.39;66.55;101225.41;4998404;57;1141076;-72
2023/09/16 09:35:49;;;;;;;6.67;2.00;;;;;;;21.44;65.25;101216.83;5014972;56;1138618;-73
2023/09/16 09:41:02;;;;;;;10.13;2.62;;;;;;;21.57;64.35;101189.69;5024370;56;1138604;-72
2023/09/16 09:46:08;;;;;;;6.33;2.20;;;;;;;21.57;64.35;101189.69;5003100;57;1140756;-72
2023/09/16 09:51:18;;;;;;;3.37;2.15;;;;;;;21.53;63.05;101199.16;5029628;56;1138692;-71
2023/09/16 09:56:25;;;;;;;1.80;1.67;;;;;;;21.58;62.85;101190.03;4974751;57;1138872;-74
2023/09/16 10:01:36;;;;;;;4.53;3.10;;;;;;;21.66;62.71;101177.89;4947879;57;1138865;-72
2023/09/16 10:06:42;;;;;;;4.70;1.40;;;;;;;21.85;61.94;101171.72;4939961;58;1138776;-73
2023/09/16 10:11:47;;;;;;;2.72;2.02;;;;;;;21.98;61.00;101178.24;5034781;57;1139035;-72
2023/09/16 10:16:54;;;;;;;2.25;2.02;;;;;;;22.15;58.36;101178.17;4972177;57;1138659;-73
2023/09/16 10:22:00;;;;;;;4.85;2.80;;;;;;;22.34;59.72;101176.34;5039005;56;1138656;-73
2023/09/16 10:27:10;;;;;;;4.33;2.10;;;;;;;22.44;57.20;101175.09;5041010;56;1138783;-72
2023/09/16 10:32:17;;;;;;;5.20;2.30;;;;;;;22.58;56.94;101166.73;5006199;57;1139007;-73
2023/09/16 10:37:23;;;;;;;11.25;1.98;;;;;;;22.67;57.15;101159.39;4986810;57;1138811;-73
2023/09/16 10:42:30;;;;;;;4.90;2.10;;;;;;;22.80;54.35;101159.13;5018931;56;1140984;-73
2023/09/16 10:47:36;;;;;;;1.93;1.83;;;;;;;22.93;55.14;101149.05;4983381;57;1138657;-73
2023/09/16 10:52:55;;;;;;;6.80;1.98;;;;;;;23.08;57.13;101139.63;5050195;56;1138953;-73
2023/09/16 10:58:16;;;;;;;2.02;1.85;;;;;;;23.24;55.97;101136.74;4984340;56;1138388;-75
2023/09/16 11:03:33;;;;;;;4.80;1.82;;;;;;;23.34;57.03;101137.31;5079416;56;1138712;-75
2023/09/16 11:08:39;;;;;;;2.43;2.03;;;;;;;23.54;54.09;101138.94;5063654;56;1138587;-75
2023/09/16 11:13:45;;;;;;;3.17;1.87;;;;;;;23.55;53.40;101128.97;5141585;56;1138589;-72
2023/09/16 11:18:52;;;;;;;3.40;2.15;;;;;;;23.57;54.51;101126.92;4966581;57;1138730;-73
2023/09/16 11:23:58;;;;;;;6.87;2.00;;;;;;;23.62;53.97;101127.20;5006175;56;1138811;-72
2023/09/16 11:29:22;;;;;;;6.22;2.22;;;;;;;23.58;53.69;101119.98;4993451;57;1138696;-71
2023/09/16 11:34:29;;;;;;;5.83;2.20;;;;;;;23.57;52.40;101112.08;5092589;55;1138821;-72
2023/09/16 11:39:43;;;;;;;6.37;2.50;;;;;;;23.52;51.84;101103.73;5081316;56;1138830;-72
2023/09/16 11:44:48;;;;;;;4.10;2.22;;;;;;;23.58;54.34;101098.90;5164789;55;1138744;-72
2023/09/16 11:49:54;;;;;;;3.80;1.95;;;;;;;23.85;53.65;101096.81;4989533;57;1138854;-72
2023/09/16 11:55:00;;;;;;;9.08;2.85;;;;;;;24.01;52.04;101101.13;5010354;57;1138617;-73
2023/09/16 12:00:08;;;;;;;5.72;2.25;;;;;;;24.07;51.18;101088.22;4978146;57;1138961;-73
2023/09/16 12:05:16;;;;;;;3.45;2.60;;;;;;;24.23;53.74;101081.70;5042348;57;1138972;-72
2023/09/16 12:10:22;;;;;;;4.97;2.20;;;;;;;24.45;48.95;101089.61;5094619;57;1138895;-72
2023/09/16 12:15:28;;;;;;;7.25;3.05;;;;;;;24.50;52.69;101087.69;5062053;56;1139124;-72
2023/09/16 12:20:35;;;;;;;6.10;2.47;;;;;;;24.56;49.60;101076.09;4967962;58;1138753;-72
2023/09/16 12:25:43;;;;;;;7.72;2.45;;;;;;;24.62;48.56;101080.70;5013804;57;1138816;-73
2023/09/16 12:30:52;;;;;;;7.53;2.45;;;;;;;24.64;47.32;101073.23;5008468;57;1138676;-73
2023/09/16 12:35:58;;;;;;;8.03;3.10;;;;;;;24.87;49.56;101061.64;4991569;57;1138804;-73
2023/09/16 12:41:05;;;;;;;4.03;3.67;;;;;;;25.02;46.45;101065.60;4951057;57;1138951;-72
2023/09/16 12:46:13;;;;;;;4.65;3.15;;;;;;;24.88;45.53;101042.18;4970992;57;1138399;-73
2023/09/16 12:51:22;;;;;;;6.33;2.30;;;;;;;24.94;44.01;101062.20;4977038;57;1138610;-72
2023/09/16 12:56:30;;;;;;;7.08;3.22;;;;;;;24.86;44.16;101050.49;5000914;56;1138803;-73
2023/09/16 13:01:36;;;;;;;6.33;2.60;;;;;;;25.00;44.11;101044.66;5031597;56;1138990;-73
2023/09/16 13:06:42;;;;;;;5.00;2.70;;;;;;;25.10;46.00;101038.35;4992736;56;1138937;-73
2023/09/16 13:11:52;;;;;;;6.03;2.33;;;;;;;25.10;44.24;101035.64;5007915;56;1138727;-73
2023/09/16 13:16:58;;;;;;;5.33;2.67;;;;;;;25.12;45.49;101022.75;5034756;57;1138662;-72
2023/09/16 13:22:12;;;;;;;3.30;2.70;;;;;;;25.24;43.77;101034.66;4932514;57;1138708;-72
2023/09/16 13:27:19;;;;;;;5.65;2.83;;;;;;;25.24;43.94;101025.19;4924174;58;1138622;-72
2023/09/16 13:32:25;;;;;;;9.08;3.42;;;;;;;25.21;41.80;101034.22;5040152;57;1138557;-72
2023/09/16 13:37:32;;;;;;;7.10;3.02;;;;;;;25.26;41.85;101035.81;5024574;56;1138882;-72
2023/09/16 13:42:37;;;;;;;8.88;5.62;;;;;;;25.28;42.67;101025.62;5005682;57;1138783;-74
2023/09/16 13:47:43;;;;;;;5.20;3.55;;;;;;;25.30;40.21;101023.55;4972609;56;1138695;-73
2023/09/16 13:52:48;;;;;;;3.67;3.25;;;;;;;25.26;40.96;101013.32;5038443;57;1138824;-72
2023/09/16 13:57:58;;;;;;;6.72;3.02;;;;;;;25.31;42.84;101012.20;4983404;57;1138709;-71
2023/09/16 14:03:06;;;;;;;6.78;2.92;;;;;;;25.52;43.18;101006.10;4989224;57;1138801;-72
2023/09/16 14:08:11;;;;;;;6.25;2.85;;;;;;;25.42;41.85;101004.83;4947118;58;1138756;-72
2023/09/16 14:13:17;;;;;;;4.55;2.67;;;;;;;25.35;41.78;101002.64;4992253;57;1138779;-74
2023/09/16 14:18:23;;;;;;;3.85;3.20;;;;;;;25.36;41.95;100991.58;4983959;57;1138758;-72
2023/09/16 14:23:29;;;;;;;3.17;2.87;;;;;;;25.35;42.63;100991.30;4988879;57;1139085;-73
2023/09/16 14:28:35;;;;;;;4.05;3.30;;;;;;;25.35;43.01;100978.27;4958750;57;1138760;-72
2023/09/16 14:33:41;;;;;;;4.23;3.47;;;;;;;25.34;42.10;100978.79;4964537;57;1138657;-73
2023/09/16 14:38:48;;;;;;;6.37;3.10;;;;;;;25.37;42.92;100977.52;4890350;57;1139163;-72
2023/09/16 14:43:54;;;;;;;5.78;4.53;;;;;;;25.37;43.10;100962.63;5011095;57;1138604;-71
2023/09/16 14:49:00;;;;;;;5.60;3.98;;;;;;;25.32;43.49;100954.30;4973379;57;1138985;-72
2023/09/16 14:54:06;;;;;;;5.65;3.60;;;;;;;25.31;43.94;100946.70;4940457;57;1138892;-72
2023/09/16 14:59:11;;;;;;;4.22;3.58;;;;;;;25.31;43.68;100941.80;4967849;57;1138911;-73
2023/09/16 15:04:19;;;;;;;7.50;4.03;;;;;;;25.31;45.16;100944.52;4936752;58;1138729;-73
2023/09/16 15:09:24;;;;;;;4.00;3.22;;;;;;;25.35;45.79;100924.95;4928270;57;1138939;-73
2023/09/16 15:14:30;;;;;;;4.22;3.83;;;;;;;25.36;46.13;100924.43;4959295;57;1138862;-73
2023/09/16 15:19:36;;;;;;;3.77;3.47;;;;;;;25.36;46.97;100917.11;4930181;57;1138777;-73
2023/09/16 15:24:41;;;;;;;5.60;4.06;;;;;;;25.32;47.63;100911.81;4983378;57;1138914;-71
2023/09/16 15:29:47;;;;;;;12.53;4.47;;;;;;;25.34;48.57;100921.09;5088211;56;1138918;-74
2023/09/16 15:34:53;;;;;;;6.28;3.85;;;;;;;25.35;48.72;100918.18;4869226;58;1140985;-71
2023/09/16 15:39:59;;;;;;;12.65;3.90;;;;;;;25.29;49.06;100913.58;4938175;57;1138693;-72
2023/09/16 15:45:07;;;;;;;7.08;3.90;;;;;;;25.27;49.40;100908.88;4901154;57;1140774;-72
2023/09/16 15:50:13;;;;;;;6.37;4.40;;;;;;;25.24;50.14;100903.35;4888401;58;1138646;-72
2023/09/16 15:55:19;;;;;;;4.17;3.47;;;;;;;25.19;49.60;100901.80;4939794;58;1138797;-73
2023/09/16 16:00:25;;;;;;;8.33;3.85;;;;;;;25.09;50.30;100893.73;4959627;58;1138541;-72
2023/09/16 16:05:33;;;;;;;7.86;4.20;;;;;;;25.05;50.68;100893.86;5059099;57;1138727;-74
2023/09/16 16:10:39;;;;;;;6.78;4.67;;;;;;;24.96;50.67;100882.88;5099010;56;1138692;-71
2023/09/16 16:15:44;;;;;;;5.08;4.58;;;;;;;24.88;51.42;100883.89;5099898;56;1138848;-73
2023/09/16 16:20:50;;;;;;;14.45;4.75;;;;;;;24.85;51.77;100878.36;5035722;57;1138650;-71
2023/09/16 16:25:57;;;;;;;5.55;4.40;;;;;;;24.77;52.38;100881.23;5098318;56;1140676;-72
2023/09/16 16:31:04;;;;;;;9.90;4.25;;;;;;;24.63;52.51;100874.10;5025631;57;1138890;-72
2023/09/16 16:36:10;;;;;;;13.22;3.80;;;;;;;24.57;52.91;100870.87;5039938;57;1138690;-72
2023/09/16 16:41:16;;;;;;;10.32;4.47;;;;;;;24.48;53.19;100863.95;5023085;56;1140455;-72
2023/09/16 16:46:23;;;;;;;6.78;4.65;;;;;;;24.33;53.44;100872.20;5024731;56;1140501;-73
2023/09/16 16:51:29;;;;;;;4.28;3.87;;;;;;;24.20;54.02;100869.39;5044694;57;1138714;-73
2023/09/16 16:56:35;;;;;;;9.75;4.00;;;;;;;24.10;54.40;100871.12;4954322;56;1138661;-73
2023/09/16 17:01:40;;;;;;;5.03;4.30;;;;;;;24.05;54.68;100863.28;5014887;56;1138828;-74
2023/09/16 17:06:46;;;;;;;16.73;6.78;;;;;;;23.99;54.99;100863.54;5015052;56;1138817;-67
2023/09/16 17:11:52;;;;;;;28.42;8.35;;;;;;;23.93;55.40;100865.70;5106671;56;1140858;-75
2023/09/16 17:16:58;;;;;;;10.78;9.68;;;;;;;23.82;55.64;100871.14;5098643;56;1140896;-69
2023/09/16 17:22:07;;;;;;;17.42;8.20;;;;;;;23.72;56.02;100865.74;5098524;56;1140683;-69
2023/09/16 17:27:11;;;;;;;22.75;8.28;;;;;;;23.58;56.47;100861.27;4991953;57;1140815;-66
2023/09/16 17:32:17;;;;;;;14.15;6.33;;;;;;;23.41;57.06;100873.66;5005437;56;1140830;-68
2023/09/16 17:37:22;;;;;;;15.03;6.42;;;;;;;23.28;57.57;100874.06;5003563;57;1141000;-68
2023/09/16 17:42:28;;;;;;;12.75;6.62;;;;;;;23.12;58.17;100869.75;5023229;57;1140730;-65
2023/09/16 17:47:33;;;;;;;21.35;9.55;;;;;;;22.96;58.62;100872.17;4944733;57;1140856;-70
2023/09/16 17:52:40;;;;;;;21.60;8.98;;;;;;;22.83;59.25;100870.69;4941261;57;1140750;-75
2023/09/16 17:57:47;;;;;;;14.78;7.37;;;;;;;22.68;59.80;100884.17;4953726;57;1140868;-75
2023/09/16 18:02:53;;;;;;;14.63;5.33;;;;;;;22.59;60.33;100874.53;5027068;57;1140841;-74
2023/09/16 18:07:59;;;;;;;7.47;4.45;;;;;;;22.50;60.74;100875.64;4970185;57;1140560;-75
2023/09/16 18:13:05;;;;;;;8.20;5.10;;;;;;;22.40;61.00;100882.68;5008839;56;1138513;-75
2023/09/16 18:18:10;;;;;;;9.20;5.00;;;;;;;22.27;61.47;100885.20;4960324;57;1138579;-75
2023/09/16 18:23:16;;;;;;;7.17;6.15;;;;;;;22.07;62.65;100878.68;4953146;57;1138514;-75
2023/09/16 18:28:22;;;;;;;14.58;6.47;;;;;;;21.92;63.02;100895.30;5014349;57;1138577;-75
2023/09/16 18:33:28;;;;;;;10.58;6.00;;;;;;;21.79;63.64;100894.59;5118458;56;1140842;-75
2023/09/16 18:38:34;;;;;;;8.13;4.75;;;;;;;21.67;64.11;100897.40;5098319;56;1140851;-77
2023/09/16 18:43:40;;;;;;;7.55;5.35;;;;;;;21.60;64.70;100895.09;5098687;56;1138592;-75
2023/09/16 18:48:46;;;;;;;8.55;4.53;;;;;;;21.50;65.04;100886.44;5026973;57;1138637;-75
2023/09/16 18:53:51;;;;;;;17.45;7.97;;;;;;;21.39;65.60;100893.91;5002698;57;1139120;-75
2023/09/16 18:58:57;;;;;;;14.50;7.40;;;;;;;21.27;66.13;100894.00;5017304;57;1140552;-75
2023/09/16 19:04:02;;;;;;;10.03;6.75;;;;;;;21.23;66.66;100891.88;5026173;56;1140981;-76
2023/09/16 19:09:08;;;;;;;7.58;5.78;;;;;;;21.17;66.95;100892.55;5072320;56;1140784;-75
2023/09/16 19:14:14;;;;;;;9.73;6.80;;;;;;;21.10;67.64;100888.88;5079444;56;1138630;-76
2023/09/16 19:19:19;;;;;;;14.47;7.22;;;;;;;20.98;68.03;100893.33;5081010;56;1138601;-75
2023/09/16 19:24:25;;;;;;;8.28;5.67;;;;;;;20.91;68.53;100891.03;5066128;56;1140723;-75
2023/09/16 19:29:32;;;;;;;12.95;6.58;;;;;;;20.85;68.61;100893.07;5063633;57;1138713;-75
2023/09/16 19:34:39;;;;;;;12.18;6.35;;;;;;;20.82;68.94;100887.20;5038004;56;1141083;-75
2023/09/16 19:39:45;;;;;;;11.18;7.10;;;;;;;20.78;69.14;100889.94;4964990;57;1140855;-75
2023/09/16 19:44:52;;;;;;;16.50;7.03;;;;;;;20.74;69.41;100883.23;5027916;57;1141147;-75
2023/09/16 19:49:58;;;;;;;12.43;6.65;;;;;;;20.70;69.88;100877.36;5068599;56;1140874;-75
2023/09/16 19:55:03;;;;;;;18.48;7.97;;;;;;;20.59;69.94;100869.70;4995824;57;1140700;-75
2023/09/16 20:00:10;;;;;;;12.35;7.35;;;;;;;20.57;70.34;100881.13;5098873;56;1140691;-75
2023/09/16 20:05:16;;;;;;;18.25;9.83;;;;;;;20.53;70.71;100879.79;5077235;55;1140851;-75
2023/09/16 20:10:22;;;;;;;18.87;9.88;;;;;;;20.44;71.35;100872.78;5087363;56;1140926;-75
2023/09/16 20:15:29;;;;;;;16.85;9.05;;;;;;;20.33;71.82;100869.92;5044405;56;1140919;-74
2023/09/16 20:20:36;;;;;;;14.32;8.98;;;;;;;20.21;72.43;100861.91;5073611;55;1140711;-75
2023/09/16 20:25:42;;;;;;;13.00;8.67;;;;;;;20.14;73.19;100856.41;5029637;56;1142598;-75
2023/09/16 20:30:48;;;;;;;16.30;9.47;;;;;;;20.11;73.30;100862.62;5025856;56;1140833;-75
2023/09/16 20:35:53;;;;;;;14.18;8.35;;;;;;;20.10;73.81;100859.10;5045351;56;1141068;-75
2023/09/16 20:40:59;;;;;;;12.90;8.88;;;;;;;20.00;74.26;100855.28;4992658;57;1140454;-75
2023/09/16 20:46:06;;;;;;;11.93;8.40;;;;;;;19.92;75.23;100850.42;4941839;57;1140654;-74
2023/09/16 20:51:12;;;;;;;10.40;9.13;;;;;;;19.83;75.44;100845.59;4963703;57;1140756;-74
2023/09/16 20:56:17;;;;;;;12.55;9.40;;;;;;;19.77;75.91;100838.70;4993960;57;1140820;-74
2023/09/16 21:01:23;;;;;;;17.05;9.80;;;;;;;19.76;75.89;100843.73;5098924;55;1140931;-74
2023/09/16 21:06:28;;;;;;;10.50;9.35;;;;;;;19.78;76.26;100847.94;5029930;56;1141045;-74
2023/09/16 21:11:34;;;;;;;17.10;9.88;;;;;;;19.82;76.53;100849.78;5025962;56;1140671;-74
2023/09/16 21:16:40;;;;;;;15.93;9.88;;;;;;;19.76;76.77;100842.40;5010224;57;1140960;-74
2023/09/16 21:21:45;;;;;;;14.45;9.35;;;;;;;19.72;76.74;100844.58;4990190;57;1188700;-76
2023/09/16 21:26:53;;;;;;;14.00;9.17;;;;;;;19.73;76.71;100850.28;5016897;57;1140936;-74
2023/09/16 21:31:59;;;;;;;12.75;8.90;;;;;;;19.70;76.71;100843.09;4990192;58;1193368;-75
2023/09/16 21:37:04;;;;;;;12.37;9.40;;;;;;;19.69;77.02;100849.47;4989571;57;1236253;-74
2023/09/16 21:42:10;;;;;;;22.17;11.30;;;;;;;19.63;77.31;100846.95;5093104;56;1140824;-75
2023/09/16 21:47:16;;;;;;;24.07;13.30;;;;;;;19.46;77.30;100831.84;4995098;57;1143295;-74
2023/09/16 21:52:22;;;;;;;15.85;10.00;;;;;;;19.33;78.00;100835.03;5073958;56;1143268;-74
2023/09/16 21:57:28;;;;;;;18.70;9.90;;;;;;;19.18;78.42;100842.91;5014963;57;1143040;-74
2023/09/16 22:02:34;;;;;;;20.92;10.38;;;;;;;19.13;79.13;100846.58;4991463;57;1141127;-75
2023/09/16 22:07:40;;;;;;;18.30;10.93;;;;;;;19.10;79.80;100834.84;5073694;56;1143019;-75
2023/09/16 22:12:45;;;;;;;13.80;10.93;;;;;;;19.11;80.18;100828.98;4991986;57;1249916;-74
2023/09/16 22:17:51;;;;;;;21.97;11.08;;;;;;;19.09;80.44;100827.84;5093812;56;1143587;-75
2023/09/16 22:22:56;;;;;;;17.45;12.05;;;;;;;19.07;80.69;100826.32;4931483;58;1142921;-75
2023/09/16 22:28:02;;;;;;;23.57;11.93;;;;;;;19.04;80.83;100826.64;4992394;57;1247070;-75
2023/09/16 22:33:08;;;;;;;21.73;11.30;;;;;;;18.95;81.38;100825.28;5014006;58;1241423;-75
2023/09/16 22:38:14;;;;;;;20.12;10.53;;;;;;;18.88;81.69;100818.92;4993298;57;1240753;-75
2023/09/16 22:43:19;;;;;;;20.00;11.78;;;;;;;18.87;82.31;100825.28;4989922;57;1247491;-75
2023/09/16 22:48:25;;;;;;;14.98;10.93;;;;;;;18.86;82.73;100822.27;5011487;57;1142956;-74
2023/09/16 22:53:30;;;;;;;17.10;11.20;;;;;;;18.87;83.19;100825.28;4989392;58;1240411;-74
2023/09/16 22:58:37;;;;;;;19.64;11.92;;;;;;;18.83;83.35;100825.77;4987865;57;1260230;-75
2023/09/16 23:03:42;;;;;;;18.52;10.72;;;;;;;18.76;84.12;100823.43;4988091;58;1260812;-74